Terminal Aerodrome Forecast
Issued by NWS

Home | Current Version | Previous Version | Text Only | Print | Product List | Glossary On
Versions: 1 2 3 4 5 6 7 8 9 10 11 12 13 14 15 16 17 18 19 20 21
000
FTUS46 KSTO 251700 RRA
TAFSCK
TAF
KSCK 251752Z 2518/2618 VRB03KT 1SM BR OVC002
     FM252000 VRB02KT 2SM BR OVC005
     FM252200 12003KT 3SM BR BKN009
     FM260000 12005KT 4SM HZ SCT010
     FM260300 VRB03KT 2SM BR OVC005=

USA.gov is the U.S. government's official web portal to all federal, state and local government web resources and services.